sensor_id;sensor_type;location;lat;lon;timestamp;P1;durP1;ratioP1;P2;durP2;ratioP2
37593;SDS011;23441;50.856;6.076;2023-06-24T00:00:59;8.88;;;7.65;;
37593;SDS011;23441;50.856;6.076;2023-06-24T00:03:24;11.65;;;7.70;;
37593;SDS011;23441;50.856;6.076;2023-06-24T00:05:50;13.00;;;8.38;;
37593;SDS011;23441;50.856;6.076;2023-06-24T00:08:16;9.07;;;7.90;;
37593;SDS011;23441;50.856;6.076;2023-06-24T00:10:48;9.90;;;8.10;;
37593;SDS011;23441;50.856;6.076;2023-06-24T00:13:17;11.68;;;7.93;;
37593;SDS011;23441;50.856;6.076;2023-06-24T00:15:42;11.35;;;8.75;;
37593;SDS011;23441;50.856;6.076;2023-06-24T00:18:11;10.45;;;7.88;;
37593;SDS011;23441;50.856;6.076;2023-06-24T00:20:37;10.43;;;8.52;;
37593;SDS011;23441;50.856;6.076;2023-06-24T00:23:03;8.60;;;7.30;;
37593;SDS011;23441;50.856;6.076;2023-06-24T00:25:29;11.10;;;8.57;;
37593;SDS011;23441;50.856;6.076;2023-06-24T00:27:55;11.35;;;8.60;;
37593;SDS011;23441;50.856;6.076;2023-06-24T00:30:21;13.15;;;9.15;;
37593;SDS011;23441;50.856;6.076;2023-06-24T00:32:47;12.65;;;8.43;;
37593;SDS011;23441;50.856;6.076;2023-06-24T00:35:13;10.90;;;8.75;;
37593;SDS011;23441;50.856;6.076;2023-06-24T00:37:39;11.30;;;9.32;;
37593;SDS011;23441;50.856;6.076;2023-06-24T00:40:06;12.55;;;9.30;;
37593;SDS011;23441;50.856;6.076;2023-06-24T00:42:36;10.68;;;8.68;;
37593;SDS011;23441;50.856;6.076;2023-06-24T00:45:02;12.02;;;9.07;;
37593;SDS011;23441;50.856;6.076;2023-06-24T00:47:30;11.23;;;8.88;;
37593;SDS011;23441;50.856;6.076;2023-06-24T00:49:57;13.57;;;8.98;;
37593;SDS011;23441;50.856;6.076;2023-06-24T00:52:22;12.93;;;8.90;;
37593;SDS011;23441;50.856;6.076;2023-06-24T00:54:49;11.90;;;8.88;;
37593;SDS011;23441;50.856;6.076;2023-06-24T00:57:14;10.40;;;8.60;;
37593;SDS011;23441;50.856;6.076;2023-06-24T00:59:42;14.02;;;9.95;;
37593;SDS011;23441;50.856;6.076;2023-06-24T01:02:11;12.13;;;8.82;;
37593;SDS011;23441;50.856;6.076;2023-06-24T01:04:37;12.07;;;8.80;;
37593;SDS011;23441;50.856;6.076;2023-06-24T01:07:03;11.75;;;9.38;;
37593;SDS011;23441;50.856;6.076;2023-06-24T01:09:30;15.95;;;9.82;;
37593;SDS011;23441;50.856;6.076;2023-06-24T01:11:56;14.30;;;8.82;;
37593;SDS011;23441;50.856;6.076;2023-06-24T01:14:22;12.00;;;8.68;;
37593;SDS011;23441;50.856;6.076;2023-06-24T01:17:31;12.27;;;9.30;;
37593;SDS011;23441;50.856;6.076;2023-06-24T01:20:02;13.13;;;9.18;;
37593;SDS011;23441;50.856;6.076;2023-06-24T01:25:40;12.93;;;9.05;;
37593;SDS011;23441;50.856;6.076;2023-06-24T01:28:41;9.85;;;8.32;;
37593;SDS011;23441;50.856;6.076;2023-06-24T01:32:05;11.23;;;8.32;;
37593;SDS011;23441;50.856;6.076;2023-06-24T01:37:19;12.40;;;9.43;;
37593;SDS011;23441;50.856;6.076;2023-06-24T01:43:05;14.75;;;9.40;;
37593;SDS011;23441;50.856;6.076;2023-06-24T01:45:35;12.80;;;8.32;;
37593;SDS011;23441;50.856;6.076;2023-06-24T01:50:34;12.70;;;8.70;;
37593;SDS011;23441;50.856;6.076;2023-06-24T01:53:01;10.70;;;8.73;;
37593;SDS011;23441;50.856;6.076;2023-06-24T01:55:30;12.07;;;8.70;;
37593;SDS011;23441;50.856;6.076;2023-06-24T01:57:58;13.25;;;8.68;;
37593;SDS011;23441;50.856;6.076;2023-06-24T02:00:28;12.35;;;8.88;;
37593;SDS011;23441;50.856;6.076;2023-06-24T02:02:54;13.85;;;9.00;;
37593;SDS011;23441;50.856;6.076;2023-06-24T02:05:21;11.45;;;8.50;;
37593;SDS011;23441;50.856;6.076;2023-06-24T02:07:47;15.25;;;9.07;;
37593;SDS011;23441;50.856;6.076;2023-06-24T02:10:15;12.13;;;8.82;;
37593;SDS011;23441;50.856;6.076;2023-06-24T02:12:41;12.63;;;8.90;;
37593;SDS011;23441;50.856;6.076;2023-06-24T02:15:09;15.10;;;8.85;;
37593;SDS011;23441;50.856;6.076;2023-06-24T02:17:35;11.88;;;9.20;;
37593;SDS011;23441;50.856;6.076;2023-06-24T02:20:03;12.85;;;9.27;;
37593;SDS011;23441;50.856;6.076;2023-06-24T02:22:32;13.88;;;9.32;;
37593;SDS011;23441;50.856;6.076;2023-06-24T02:24:58;13.32;;;9.63;;
37593;SDS011;23441;50.856;6.076;2023-06-24T02:27:24;13.60;;;10.50;;
37593;SDS011;23441;50.856;6.076;2023-06-24T02:29:50;13.40;;;9.60;;
37593;SDS011;23441;50.856;6.076;2023-06-24T02:32:17;14.50;;;10.50;;
37593;SDS011;23441;50.856;6.076;2023-06-24T02:34:43;14.35;;;10.30;;
37593;SDS011;23441;50.856;6.076;2023-06-24T02:37:08;14.93;;;10.45;;
37593;SDS011;23441;50.856;6.076;2023-06-24T02:39:34;16.35;;;10.05;;
37593;SDS011;23441;50.856;6.076;2023-06-24T02:42:03;15.88;;;10.68;;
37593;SDS011;23441;50.856;6.076;2023-06-24T02:44:28;14.15;;;10.15;;
37593;SDS011;23441;50.856;6.076;2023-06-24T02:46:54;14.65;;;10.68;;
37593;SDS011;23441;50.856;6.076;2023-06-24T02:49:20;16.45;;;10.57;;
37593;SDS011;23441;50.856;6.076;2023-06-24T02:51:47;16.40;;;11.00;;
37593;SDS011;23441;50.856;6.076;2023-06-24T02:54:13;17.58;;;11.63;;
37593;SDS011;23441;50.856;6.076;2023-06-24T02:56:40;16.25;;;11.25;;
37593;SDS011;23441;50.856;6.076;2023-06-24T02:59:10;16.98;;;11.25;;
37593;SDS011;23441;50.856;6.076;2023-06-24T03:01:36;20.48;;;12.80;;
37593;SDS011;23441;50.856;6.076;2023-06-24T03:04:04;18.27;;;12.35;;
37593;SDS011;23441;50.856;6.076;2023-06-24T03:06:30;18.23;;;12.32;;
37593;SDS011;23441;50.856;6.076;2023-06-24T03:08:57;18.25;;;13.15;;
37593;SDS011;23441;50.856;6.076;2023-06-24T03:11:23;18.58;;;12.57;;
37593;SDS011;23441;50.856;6.076;2023-06-24T03:13:50;17.55;;;13.30;;
37593;SDS011;23441;50.856;6.076;2023-06-24T03:16:16;21.63;;;12.93;;
37593;SDS011;23441;50.856;6.076;2023-06-24T03:18:42;18.80;;;12.52;;
37593;SDS011;23441;50.856;6.076;2023-06-24T03:21:08;24.40;;;14.02;;
37593;SDS011;23441;50.856;6.076;2023-06-24T03:23:34;20.33;;;13.10;;
37593;SDS011;23441;50.856;6.076;2023-06-24T03:26:00;24.00;;;14.00;;
37593;SDS011;23441;50.856;6.076;2023-06-24T03:28:28;21.77;;;12.70;;
37593;SDS011;23441;50.856;6.076;2023-06-24T03:30:57;18.70;;;13.27;;
37593;SDS011;23441;50.856;6.076;2023-06-24T03:33:23;23.38;;;14.02;;
37593;SDS011;23441;50.856;6.076;2023-06-24T03:35:49;22.33;;;14.02;;
37593;SDS011;23441;50.856;6.076;2023-06-24T03:38:16;18.25;;;13.32;;
37593;SDS011;23441;50.856;6.076;2023-06-24T03:40:41;20.13;;;14.20;;
37593;SDS011;23441;50.856;6.076;2023-06-24T03:43:08;23.45;;;14.60;;
37593;SDS011;23441;50.856;6.076;2023-06-24T03:45:34;22.75;;;14.27;;
37593;SDS011;23441;50.856;6.076;2023-06-24T03:48:00;21.48;;;13.50;;
37593;SDS011;23441;50.856;6.076;2023-06-24T03:50:25;21.85;;;14.73;;
37593;SDS011;23441;50.856;6.076;2023-06-24T03:52:51;21.20;;;14.48;;
37593;SDS011;23441;50.856;6.076;2023-06-24T03:55:16;21.95;;;13.80;;
37593;SDS011;23441;50.856;6.076;2023-06-24T03:57:42;19.58;;;13.82;;
37593;SDS011;23441;50.856;6.076;2023-06-24T04:00:07;21.83;;;13.73;;
37593;SDS011;23441;50.856;6.076;2023-06-24T04:02:38;18.63;;;14.05;;
37593;SDS011;23441;50.856;6.076;2023-06-24T04:05:04;21.80;;;13.18;;
37593;SDS011;23441;50.856;6.076;2023-06-24T04:07:31;18.77;;;13.68;;
37593;SDS011;23441;50.856;6.076;2023-06-24T04:09:57;18.33;;;13.07;;
37593;SDS011;23441;50.856;6.076;2023-06-24T04:12:23;20.13;;;12.45;;
37593;SDS011;23441;50.856;6.076;2023-06-24T04:14:49;19.83;;;14.52;;
37593;SDS011;23441;50.856;6.076;2023-06-24T04:17:15;20.25;;;13.43;;
37593;SDS011;23441;50.856;6.076;2023-06-24T04:19:40;20.08;;;13.95;;
37593;SDS011;23441;50.856;6.076;2023-06-24T04:22:07;21.15;;;13.98;;
37593;SDS011;23441;50.856;6.076;2023-06-24T04:24:32;22.85;;;14.25;;
37593;SDS011;23441;50.856;6.076;2023-06-24T04:26:58;18.75;;;13.57;;
37593;SDS011;23441;50.856;6.076;2023-06-24T04:29:24;19.75;;;13.57;;
37593;SDS011;23441;50.856;6.076;2023-06-24T04:31:49;20.75;;;14.43;;
37593;SDS011;23441;50.856;6.076;2023-06-24T04:34:15;19.20;;;13.55;;
37593;SDS011;23441;50.856;6.076;2023-06-24T04:36:40;21.08;;;15.30;;
37593;SDS011;23441;50.856;6.076;2023-06-24T04:39:06;21.92;;;14.18;;
37593;SDS011;23441;50.856;6.076;2023-06-24T04:41:32;20.30;;;14.15;;
37593;SDS011;23441;50.856;6.076;2023-06-24T04:43:58;22.48;;;13.52;;
37593;SDS011;23441;50.856;6.076;2023-06-24T04:46:24;21.92;;;13.73;;
37593;SDS011;23441;50.856;6.076;2023-06-24T04:48:49;22.27;;;14.75;;
37593;SDS011;23441;50.856;6.076;2023-06-24T04:51:15;20.48;;;14.68;;
37593;SDS011;23441;50.856;6.076;2023-06-24T04:53:40;25.05;;;13.60;;
37593;SDS011;23441;50.856;6.076;2023-06-24T04:56:06;20.63;;;14.30;;
37593;SDS011;23441;50.856;6.076;2023-06-24T04:58:32;21.70;;;14.35;;
37593;SDS011;23441;50.856;6.076;2023-06-24T05:00:57;24.50;;;14.82;;
37593;SDS011;23441;50.856;6.076;2023-06-24T05:03:24;18.25;;;13.18;;
37593;SDS011;23441;50.856;6.076;2023-06-24T05:05:49;19.15;;;13.43;;
37593;SDS011;23441;50.856;6.076;2023-06-24T05:08:15;21.70;;;14.50;;
37593;SDS011;23441;50.856;6.076;2023-06-24T05:10:41;21.05;;;14.13;;
37593;SDS011;23441;50.856;6.076;2023-06-24T05:13:06;17.98;;;13.35;;
37593;SDS011;23441;50.856;6.076;2023-06-24T05:15:32;22.15;;;14.75;;
37593;SDS011;23441;50.856;6.076;2023-06-24T05:17:58;17.13;;;13.15;;
37593;SDS011;23441;50.856;6.076;2023-06-24T05:20:23;20.83;;;14.40;;
37593;SDS011;23441;50.856;6.076;2023-06-24T05:22:49;20.73;;;13.80;;
37593;SDS011;23441;50.856;6.076;2023-06-24T05:25:14;18.02;;;13.02;;
37593;SDS011;23441;50.856;6.076;2023-06-24T05:27:40;21.08;;;11.57;;
37593;SDS011;23441;50.856;6.076;2023-06-24T05:30:06;15.82;;;11.27;;
37593;SDS011;23441;50.856;6.076;2023-06-24T05:32:32;16.20;;;11.18;;
37593;SDS011;23441;50.856;6.076;2023-06-24T05:34:57;16.00;;;10.52;;
37593;SDS011;23441;50.856;6.076;2023-06-24T05:37:23;13.80;;;9.45;;
37593;SDS011;23441;50.856;6.076;2023-06-24T05:39:48;13.40;;;9.55;;
37593;SDS011;23441;50.856;6.076;2023-06-24T05:42:14;17.73;;;10.57;;
37593;SDS011;23441;50.856;6.076;2023-06-24T05:44:40;12.27;;;9.57;;
37593;SDS011;23441;50.856;6.076;2023-06-24T05:47:05;13.75;;;9.98;;
37593;SDS011;23441;50.856;6.076;2023-06-24T05:49:31;13.95;;;10.57;;
37593;SDS011;23441;50.856;6.076;2023-06-24T05:51:56;15.15;;;9.57;;
37593;SDS011;23441;50.856;6.076;2023-06-24T05:54:22;12.18;;;9.27;;
37593;SDS011;23441;50.856;6.076;2023-06-24T05:56:48;12.95;;;9.70;;
37593;SDS011;23441;50.856;6.076;2023-06-24T05:59:14;11.68;;;9.70;;
37593;SDS011;23441;50.856;6.076;2023-06-24T06:01:39;14.85;;;9.20;;
37593;SDS011;23441;50.856;6.076;2023-06-24T06:04:05;13.40;;;9.05;;
37593;SDS011;23441;50.856;6.076;2023-06-24T06:06:31;13.27;;;8.90;;
37593;SDS011;23441;50.856;6.076;2023-06-24T06:08:56;11.57;;;8.73;;
37593;SDS011;23441;50.856;6.076;2023-06-24T06:11:22;13.68;;;9.20;;
37593;SDS011;23441;50.856;6.076;2023-06-24T06:13:48;15.65;;;9.38;;
37593;SDS011;23441;50.856;6.076;2023-06-24T06:16:14;11.05;;;9.13;;
37593;SDS011;23441;50.856;6.076;2023-06-24T06:18:40;13.13;;;9.02;;
37593;SDS011;23441;50.856;6.076;2023-06-24T06:21:05;12.07;;;8.57;;
37593;SDS011;23441;50.856;6.076;2023-06-24T06:23:31;14.27;;;8.73;;
37593;SDS011;23441;50.856;6.076;2023-06-24T06:25:57;11.80;;;8.68;;
37593;SDS011;23441;50.856;6.076;2023-06-24T06:28:22;13.98;;;9.23;;
37593;SDS011;23441;50.856;6.076;2023-06-24T06:30:48;9.63;;;8.63;;
37593;SDS011;23441;50.856;6.076;2023-06-24T06:33:14;18.80;;;9.00;;
37593;SDS011;23441;50.856;6.076;2023-06-24T06:35:39;14.05;;;9.40;;
37593;SDS011;23441;50.856;6.076;2023-06-24T06:38:05;12.73;;;9.32;;
37593;SDS011;23441;50.856;6.076;2023-06-24T06:40:31;10.90;;;9.23;;
37593;SDS011;23441;50.856;6.076;2023-06-24T06:42:56;12.90;;;8.68;;
37593;SDS011;23441;50.856;6.076;2023-06-24T06:45:22;12.52;;;9.15;;
37593;SDS011;23441;50.856;6.076;2023-06-24T06:47:49;13.65;;;9.43;;
37593;SDS011;23441;50.856;6.076;2023-06-24T06:50:15;12.95;;;9.48;;
37593;SDS011;23441;50.856;6.076;2023-06-24T06:52:41;12.90;;;9.77;;
37593;SDS011;23441;50.856;6.076;2023-06-24T06:55:06;14.68;;;9.88;;
37593;SDS011;23441;50.856;6.076;2023-06-24T06:57:32;12.40;;;8.70;;
37593;SDS011;23441;50.856;6.076;2023-06-24T06:59:58;13.63;;;9.15;;
37593;SDS011;23441;50.856;6.076;2023-06-24T07:02:23;12.25;;;8.77;;
37593;SDS011;23441;50.856;6.076;2023-06-24T07:04:49;12.73;;;9.25;;
37593;SDS011;23441;50.856;6.076;2023-06-24T07:07:16;12.20;;;8.68;;
37593;SDS011;23441;50.856;6.076;2023-06-24T07:09:41;12.32;;;9.30;;
37593;SDS011;23441;50.856;6.076;2023-06-24T07:12:07;10.38;;;9.10;;
37593;SDS011;23441;50.856;6.076;2023-06-24T07:14:33;13.35;;;8.65;;
37593;SDS011;23441;50.856;6.076;2023-06-24T07:16:59;13.10;;;9.10;;
37593;SDS011;23441;50.856;6.076;2023-06-24T07:19:25;11.20;;;8.45;;
37593;SDS011;23441;50.856;6.076;2023-06-24T07:21:51;11.68;;;9.18;;
37593;SDS011;23441;50.856;6.076;2023-06-24T07:24:17;13.05;;;9.52;;
37593;SDS011;23441;50.856;6.076;2023-06-24T07:26:42;12.20;;;9.43;;
37593;SDS011;23441;50.856;6.076;2023-06-24T07:29:08;9.13;;;8.10;;
37593;SDS011;23441;50.856;6.076;2023-06-24T07:31:34;14.25;;;9.50;;
37593;SDS011;23441;50.856;6.076;2023-06-24T07:34:01;11.25;;;9.55;;
37593;SDS011;23441;50.856;6.076;2023-06-24T07:36:27;11.70;;;9.73;;
37593;SDS011;23441;50.856;6.076;2023-06-24T07:38:53;12.30;;;9.32;;
37593;SDS011;23441;50.856;6.076;2023-06-24T07:41:18;13.27;;;10.18;;
37593;SDS011;23441;50.856;6.076;2023-06-24T07:43:44;12.85;;;9.63;;
37593;SDS011;23441;50.856;6.076;2023-06-24T07:46:09;12.45;;;9.43;;
37593;SDS011;23441;50.856;6.076;2023-06-24T07:48:35;11.02;;;8.95;;
37593;SDS011;23441;50.856;6.076;2023-06-24T07:51:01;15.10;;;10.30;;
37593;SDS011;23441;50.856;6.076;2023-06-24T07:53:26;11.10;;;9.15;;
37593;SDS011;23441;50.856;6.076;2023-06-24T07:55:52;12.90;;;9.93;;
37593;SDS011;23441;50.856;6.076;2023-06-24T07:58:18;14.07;;;9.10;;
37593;SDS011;23441;50.856;6.076;2023-06-24T08:00:44;14.98;;;9.50;;
37593;SDS011;23441;50.856;6.076;2023-06-24T08:03:11;13.20;;;9.80;;
37593;SDS011;23441;50.856;6.076;2023-06-24T08:05:37;12.75;;;9.07;;
37593;SDS011;23441;50.856;6.076;2023-06-24T08:08:04;13.88;;;9.60;;
37593;SDS011;23441;50.856;6.076;2023-06-24T08:10:30;14.60;;;9.45;;
37593;SDS011;23441;50.856;6.076;2023-06-24T08:12:56;14.50;;;10.77;;
37593;SDS011;23441;50.856;6.076;2023-06-24T08:15:22;11.40;;;9.55;;
37593;SDS011;23441;50.856;6.076;2023-06-24T08:17:51;11.93;;;9.70;;
37593;SDS011;23441;50.856;6.076;2023-06-24T08:20:18;13.45;;;9.60;;
37593;SDS011;23441;50.856;6.076;2023-06-24T08:22:47;13.35;;;8.82;;
37593;SDS011;23441;50.856;6.076;2023-06-24T08:25:13;11.95;;;8.18;;
37593;SDS011;23441;50.856;6.076;2023-06-24T08:27:39;13.30;;;8.43;;
37593;SDS011;23441;50.856;6.076;2023-06-24T08:30:05;13.90;;;8.55;;
37593;SDS011;23441;50.856;6.076;2023-06-24T08:32:31;10.10;;;7.88;;
37593;SDS011;23441;50.856;6.076;2023-06-24T08:34:57;9.50;;;8.50;;
37593;SDS011;23441;50.856;6.076;2023-06-24T08:37:23;11.02;;;7.03;;
37593;SDS011;23441;50.856;6.076;2023-06-24T08:39:48;10.07;;;7.68;;
37593;SDS011;23441;50.856;6.076;2023-06-24T08:42:14;10.20;;;7.28;;
37593;SDS011;23441;50.856;6.076;2023-06-24T08:44:39;9.00;;;6.60;;
37593;SDS011;23441;50.856;6.076;2023-06-24T08:47:05;7.35;;;5.40;;
37593;SDS011;23441;50.856;6.076;2023-06-24T08:49:31;10.27;;;5.63;;
37593;SDS011;23441;50.856;6.076;2023-06-24T08:52:00;19.25;;;6.13;;
37593;SDS011;23441;50.856;6.076;2023-06-24T08:54:30;10.35;;;6.38;;
37593;SDS011;23441;50.856;6.076;2023-06-24T08:56:59;6.35;;;5.45;;
37593;SDS011;23441;50.856;6.076;2023-06-24T08:59:26;8.93;;;5.22;;
37593;SDS011;23441;50.856;6.076;2023-06-24T09:01:52;7.60;;;5.18;;
37593;SDS011;23441;50.856;6.076;2023-06-24T09:04:18;5.45;;;4.45;;
37593;SDS011;23441;50.856;6.076;2023-06-24T09:06:43;9.13;;;4.85;;
37593;SDS011;23441;50.856;6.076;2023-06-24T09:09:19;5.22;;;4.72;;
37593;SDS011;23441;50.856;6.076;2023-06-24T09:14:18;5.68;;;4.65;;
37593;SDS011;23441;50.856;6.076;2023-06-24T09:19:20;6.20;;;4.63;;
37593;SDS011;23441;50.856;6.076;2023-06-24T09:21:46;6.90;;;4.30;;
37593;SDS011;23441;50.856;6.076;2023-06-24T09:24:12;5.32;;;3.80;;
37593;SDS011;23441;50.856;6.076;2023-06-24T09:26:37;4.75;;;4.25;;
37593;SDS011;23441;50.856;6.076;2023-06-24T09:29:03;7.57;;;3.85;;
37593;SDS011;23441;50.856;6.076;2023-06-24T09:31:29;5.97;;;3.90;;
37593;SDS011;23441;50.856;6.076;2023-06-24T09:33:57;7.13;;;4.07;;
37593;SDS011;23441;50.856;6.076;2023-06-24T09:36:23;5.40;;;3.45;;
37593;SDS011;23441;50.856;6.076;2023-06-24T09:38:49;4.47;;;3.90;;
37593;SDS011;23441;50.856;6.076;2023-06-24T09:41:15;5.75;;;3.30;;
37593;SDS011;23441;50.856;6.076;2023-06-24T09:43:41;4.13;;;3.00;;
37593;SDS011;23441;50.856;6.076;2023-06-24T09:46:09;4.70;;;3.38;;
37593;SDS011;23441;50.856;6.076;2023-06-24T09:48:34;5.07;;;3.55;;
37593;SDS011;23441;50.856;6.076;2023-06-24T09:51:01;4.70;;;3.63;;
37593;SDS011;23441;50.856;6.076;2023-06-24T09:53:31;7.65;;;3.80;;
37593;SDS011;23441;50.856;6.076;2023-06-24T09:55:59;4.55;;;3.40;;
37593;SDS011;23441;50.856;6.076;2023-06-24T09:58:28;5.13;;;3.63;;
37593;SDS011;23441;50.856;6.076;2023-06-24T10:00:56;4.82;;;3.13;;
37593;SDS011;23441;50.856;6.076;2023-06-24T10:03:26;4.22;;;3.00;;
37593;SDS011;23441;50.856;6.076;2023-06-24T10:05:52;5.15;;;3.30;;
37593;SDS011;23441;50.856;6.076;2023-06-24T10:08:18;6.53;;;3.40;;
37593;SDS011;23441;50.856;6.076;2023-06-24T10:10:45;5.57;;;3.67;;
37593;SDS011;23441;50.856;6.076;2023-06-24T10:13:11;5.32;;;3.67;;
37593;SDS011;23441;50.856;6.076;2023-06-24T10:15:37;4.32;;;3.03;;
37593;SDS011;23441;50.856;6.076;2023-06-24T10:18:02;5.45;;;3.55;;
37593;SDS011;23441;50.856;6.076;2023-06-24T10:20:28;4.10;;;2.83;;
37593;SDS011;23441;50.856;6.076;2023-06-24T10:22:54;5.10;;;3.05;;
37593;SDS011;23441;50.856;6.076;2023-06-24T10:25:20;4.53;;;3.58;;
37593;SDS011;23441;50.856;6.076;2023-06-24T10:27:47;4.60;;;3.40;;
37593;SDS011;23441;50.856;6.076;2023-06-24T10:30:19;3.88;;;3.13;;
37593;SDS011;23441;50.856;6.076;2023-06-24T10:32:50;4.90;;;3.40;;
37593;SDS011;23441;50.856;6.076;2023-06-24T10:35:25;7.07;;;2.63;;
37593;SDS011;23441;50.856;6.076;2023-06-24T10:37:58;4.78;;;2.72;;
37593;SDS011;23441;50.856;6.076;2023-06-24T10:40:43;4.57;;;2.92;;
37593;SDS011;23441;50.856;6.076;2023-06-24T10:45:57;7.65;;;3.20;;
37593;SDS011;23441;50.856;6.076;2023-06-24T10:48:26;5.93;;;3.63;;
37593;SDS011;23441;50.856;6.076;2023-06-24T10:50:52;4.88;;;3.00;;
37593;SDS011;23441;50.856;6.076;2023-06-24T10:53:17;5.80;;;2.75;;
37593;SDS011;23441;50.856;6.076;2023-06-24T10:55:43;4.22;;;2.90;;
37593;SDS011;23441;50.856;6.076;2023-06-24T10:58:11;5.72;;;2.88;;
37593;SDS011;23441;50.856;6.076;2023-06-24T11:00:39;5.10;;;2.72;;
37593;SDS011;23441;50.856;6.076;2023-06-24T11:03:15;6.35;;;2.92;;
37593;SDS011;23441;50.856;6.076;2023-06-24T11:05:42;3.30;;;2.63;;
37593;SDS011;23441;50.856;6.076;2023-06-24T11:08:09;3.28;;;2.92;;
37593;SDS011;23441;50.856;6.076;2023-06-24T11:10:47;2.60;;;2.20;;
37593;SDS011;23441;50.856;6.076;2023-06-24T11:13:14;3.30;;;2.53;;
37593;SDS011;23441;50.856;6.076;2023-06-24T11:15:40;4.03;;;2.45;;
37593;SDS011;23441;50.856;6.076;2023-06-24T11:18:10;4.05;;;2.63;;
37593;SDS011;23441;50.856;6.076;2023-06-24T11:20:36;2.90;;;2.60;;
37593;SDS011;23441;50.856;6.076;2023-06-24T11:23:06;3.30;;;2.38;;
37593;SDS011;23441;50.856;6.076;2023-06-24T11:25:37;4.00;;;2.65;;
37593;SDS011;23441;50.856;6.076;2023-06-24T11:28:14;3.42;;;2.42;;
37593;SDS011;23441;50.856;6.076;2023-06-24T11:30:42;4.10;;;2.00;;
37593;SDS011;23441;50.856;6.076;2023-06-24T11:33:08;3.47;;;2.00;;
37593;SDS011;23441;50.856;6.076;2023-06-24T11:35:33;2.03;;;1.83;;
37593;SDS011;23441;50.856;6.076;2023-06-24T11:38:01;2.00;;;1.88;;
37593;SDS011;23441;50.856;6.076;2023-06-24T11:40:26;3.92;;;2.00;;
37593;SDS011;23441;50.856;6.076;2023-06-24T11:42:52;3.33;;;2.17;;
37593;SDS011;23441;50.856;6.076;2023-06-24T11:45:21;3.95;;;2.53;;
37593;SDS011;23441;50.856;6.076;2023-06-24T11:47:47;5.53;;;2.85;;
37593;SDS011;23441;50.856;6.076;2023-06-24T11:50:17;3.63;;;2.17;;
37593;SDS011;23441;50.856;6.076;2023-06-24T11:52:47;2.53;;;2.15;;
37593;SDS011;23441;50.856;6.076;2023-06-24T11:55:17;3.83;;;2.38;;
37593;SDS011;23441;50.856;6.076;2023-06-24T12:00:35;2.33;;;2.10;;
37593;SDS011;23441;50.856;6.076;2023-06-24T12:03:07;4.35;;;2.38;;
37593;SDS011;23441;50.856;6.076;2023-06-24T12:05:34;2.53;;;2.15;;
37593;SDS011;23441;50.856;6.076;2023-06-24T12:08:02;2.97;;;2.13;;
37593;SDS011;23441;50.856;6.076;2023-06-24T12:10:31;3.05;;;2.10;;
37593;SDS011;23441;50.856;6.076;2023-06-24T12:13:03;4.63;;;2.08;;
37593;SDS011;23441;50.856;6.076;2023-06-24T12:15:31;4.57;;;2.40;;
37593;SDS011;23441;50.856;6.076;2023-06-24T12:17:56;2.53;;;2.10;;
37593;SDS011;23441;50.856;6.076;2023-06-24T12:20:24;3.75;;;2.30;;
37593;SDS011;23441;50.856;6.076;2023-06-24T12:22:50;3.00;;;2.08;;
37593;SDS011;23441;50.856;6.076;2023-06-24T12:25:16;3.38;;;2.30;;
37593;SDS011;23441;50.856;6.076;2023-06-24T12:27:42;3.17;;;2.30;;
37593;SDS011;23441;50.856;6.076;2023-06-24T12:30:09;2.70;;;2.33;;
37593;SDS011;23441;50.856;6.076;2023-06-24T12:32:35;5.28;;;2.03;;
37593;SDS011;23441;50.856;6.076;2023-06-24T12:35:01;6.07;;;2.30;;
37593;SDS011;23441;50.856;6.076;2023-06-24T12:37:32;2.95;;;2.30;;
37593;SDS011;23441;50.856;6.076;2023-06-24T12:39:58;2.20;;;2.00;;
37593;SDS011;23441;50.856;6.076;2023-06-24T12:42:25;3.90;;;2.30;;
37593;SDS011;23441;50.856;6.076;2023-06-24T12:44:51;4.32;;;1.98;;
37593;SDS011;23441;50.856;6.076;2023-06-24T12:47:16;2.50;;;2.10;;
37593;SDS011;23441;50.856;6.076;2023-06-24T12:49:49;2.95;;;1.90;;
37593;SDS011;23441;50.856;6.076;2023-06-24T12:52:15;2.25;;;2.05;;
37593;SDS011;23441;50.856;6.076;2023-06-24T12:54:41;2.90;;;1.60;;
37593;SDS011;23441;50.856;6.076;2023-06-24T12:57:07;3.28;;;1.65;;
37593;SDS011;23441;50.856;6.076;2023-06-24T12:59:32;3.38;;;1.85;;
37593;SDS011;23441;50.856;6.076;2023-06-24T13:01:58;4.43;;;1.70;;
37593;SDS011;23441;50.856;6.076;2023-06-24T13:04:24;2.97;;;1.90;;
37593;SDS011;23441;50.856;6.076;2023-06-24T13:06:50;2.67;;;1.90;;
37593;SDS011;23441;50.856;6.076;2023-06-24T13:09:16;8.88;;;2.25;;
37593;SDS011;23441;50.856;6.076;2023-06-24T13:11:42;3.95;;;1.90;;
37593;SDS011;23441;50.856;6.076;2023-06-24T13:14:08;4.32;;;2.03;;
37593;SDS011;23441;50.856;6.076;2023-06-24T13:16:34;3.83;;;1.80;;
37593;SDS011;23441;50.856;6.076;2023-06-24T13:19:01;2.22;;;1.83;;
37593;SDS011;23441;50.856;6.076;2023-06-24T13:21:27;4.85;;;2.20;;
37593;SDS011;23441;50.856;6.076;2023-06-24T13:23:52;2.60;;;1.92;;
37593;SDS011;23441;50.856;6.076;2023-06-24T13:26:18;2.83;;;2.10;;
37593;SDS011;23441;50.856;6.076;2023-06-24T13:28:44;3.63;;;2.08;;
37593;SDS011;23441;50.856;6.076;2023-06-24T13:31:09;3.63;;;2.10;;
37593;SDS011;23441;50.856;6.076;2023-06-24T13:33:36;6.03;;;1.90;;
37593;SDS011;23441;50.856;6.076;2023-06-24T13:36:02;4.70;;;1.90;;
37593;SDS011;23441;50.856;6.076;2023-06-24T13:38:28;2.85;;;2.05;;
37593;SDS011;23441;50.856;6.076;2023-06-24T13:40:54;3.97;;;2.22;;
37593;SDS011;23441;50.856;6.076;2023-06-24T13:43:19;2.63;;;2.10;;
37593;SDS011;23441;50.856;6.076;2023-06-24T13:45:45;1.95;;;1.65;;
37593;SDS011;23441;50.856;6.076;2023-06-24T13:48:10;2.22;;;1.77;;
37593;SDS011;23441;50.856;6.076;2023-06-24T13:50:36;2.67;;;2.08;;
37593;SDS011;23441;50.856;6.076;2023-06-24T13:53:01;2.83;;;2.20;;
37593;SDS011;23441;50.856;6.076;2023-06-24T13:55:28;2.83;;;2.47;;
37593;SDS011;23441;50.856;6.076;2023-06-24T13:57:54;2.67;;;2.08;;
37593;SDS011;23441;50.856;6.076;2023-06-24T14:00:19;3.45;;;2.20;;
37593;SDS011;23441;50.856;6.076;2023-06-24T14:02:45;2.78;;;2.25;;
37593;SDS011;23441;50.856;6.076;2023-06-24T14:05:11;2.92;;;1.90;;
37593;SDS011;23441;50.856;6.076;2023-06-24T14:07:36;3.72;;;1.80;;
37593;SDS011;23441;50.856;6.076;2023-06-24T14:10:02;3.30;;;2.13;;
37593;SDS011;23441;50.856;6.076;2023-06-24T14:12:29;2.30;;;1.80;;
37593;SDS011;23441;50.856;6.076;2023-06-24T14:14:55;3.25;;;2.53;;
37593;SDS011;23441;50.856;6.076;2023-06-24T14:17:21;2.42;;;2.15;;
37593;SDS011;23441;50.856;6.076;2023-06-24T14:19:47;4.75;;;2.13;;
37593;SDS011;23441;50.856;6.076;2023-06-24T14:22:12;2.45;;;1.92;;
37593;SDS011;23441;50.856;6.076;2023-06-24T14:24:38;4.32;;;2.40;;
37593;SDS011;23441;50.856;6.076;2023-06-24T14:27:05;3.20;;;2.13;;
37593;SDS011;23441;50.856;6.076;2023-06-24T14:29:31;3.55;;;1.90;;
37593;SDS011;23441;50.856;6.076;2023-06-24T14:31:57;3.35;;;1.90;;
37593;SDS011;23441;50.856;6.076;2023-06-24T14:34:22;2.75;;;2.10;;
37593;SDS011;23441;50.856;6.076;2023-06-24T14:36:48;2.38;;;2.10;;
37593;SDS011;23441;50.856;6.076;2023-06-24T14:39:14;2.67;;;1.83;;
37593;SDS011;23441;50.856;6.076;2023-06-24T14:41:43;1.90;;;1.70;;
37593;SDS011;23441;50.856;6.076;2023-06-24T14:44:09;2.10;;;1.90;;
37593;SDS011;23441;50.856;6.076;2023-06-24T14:46:35;3.70;;;2.22;;
37593;SDS011;23441;50.856;6.076;2023-06-24T14:49:01;4.72;;;2.50;;
37593;SDS011;23441;50.856;6.076;2023-06-24T14:51:27;2.70;;;2.20;;
37593;SDS011;23441;50.856;6.076;2023-06-24T14:53:53;3.38;;;1.90;;
37593;SDS011;23441;50.856;6.076;2023-06-24T14:56:18;3.55;;;2.45;;
37593;SDS011;23441;50.856;6.076;2023-06-24T14:58:44;6.43;;;4.97;;